sensor_id;sensor_type;location;lat;lon;timestamp;P1;durP1;ratioP1;P2;durP2;ratioP2
74241;SDS011;62599;49.146;10.426;2022-08-19T00:02:20;53.08;;;25.45;;
74241;SDS011;62599;49.146;10.426;2022-08-19T00:04:45;53.33;;;24.90;;
74241;SDS011;62599;49.146;10.426;2022-08-19T00:07:13;45.30;;;23.70;;
74241;SDS011;62599;49.146;10.426;2022-08-19T00:09:38;52.63;;;23.90;;
74241;SDS011;62599;49.146;10.426;2022-08-19T00:12:04;40.90;;;21.50;;
74241;SDS011;62599;49.146;10.426;2022-08-19T00:14:29;50.33;;;23.60;;
74241;SDS011;62599;49.146;10.426;2022-08-19T00:16:58;56.85;;;23.60;;
74241;SDS011;62599;49.146;10.426;2022-08-19T00:19:23;48.47;;;22.98;;
74241;SDS011;62599;49.146;10.426;2022-08-19T00:21:49;48.72;;;24.45;;
74241;SDS011;62599;49.146;10.426;2022-08-19T00:24:14;51.93;;;23.80;;
74241;SDS011;62599;49.146;10.426;2022-08-19T00:26:40;58.83;;;25.25;;
74241;SDS011;62599;49.146;10.426;2022-08-19T00:29:10;50.13;;;22.90;;
74241;SDS011;62599;49.146;10.426;2022-08-19T00:31:36;47.72;;;22.50;;
74241;SDS011;62599;49.146;10.426;2022-08-19T00:34:01;47.37;;;22.47;;
74241;SDS011;62599;49.146;10.426;2022-08-19T00:36:28;49.28;;;22.77;;
74241;SDS011;62599;49.146;10.426;2022-08-19T00:38:54;48.85;;;22.50;;
74241;SDS011;62599;49.146;10.426;2022-08-19T00:41:21;46.60;;;22.45;;
74241;SDS011;62599;49.146;10.426;2022-08-19T00:46:24;50.00;;;23.33;;
74241;SDS011;62599;49.146;10.426;2022-08-19T00:48:49;46.13;;;22.33;;
74241;SDS011;62599;49.146;10.426;2022-08-19T00:51:14;50.87;;;21.93;;
74241;SDS011;62599;49.146;10.426;2022-08-19T00:53:39;47.70;;;22.17;;
74241;SDS011;62599;49.146;10.426;2022-08-19T00:56:05;50.30;;;24.40;;
74241;SDS011;62599;49.146;10.426;2022-08-19T00:58:32;49.38;;;23.73;;
74241;SDS011;62599;49.146;10.426;2022-08-19T01:00:58;44.15;;;22.00;;
74241;SDS011;62599;49.146;10.426;2022-08-19T01:03:24;48.80;;;23.45;;
74241;SDS011;62599;49.146;10.426;2022-08-19T01:05:49;53.33;;;24.73;;
74241;SDS011;62599;49.146;10.426;2022-08-19T01:08:15;51.58;;;24.23;;
74241;SDS011;62599;49.146;10.426;2022-08-19T01:10:42;43.70;;;20.80;;
74241;SDS011;62599;49.146;10.426;2022-08-19T01:13:08;45.10;;;22.60;;
74241;SDS011;62599;49.146;10.426;2022-08-19T01:15:35;49.83;;;24.13;;
74241;SDS011;62599;49.146;10.426;2022-08-19T01:18:07;47.28;;;22.85;;
74241;SDS011;62599;49.146;10.426;2022-08-19T01:20:34;48.22;;;22.23;;
74241;SDS011;62599;49.146;10.426;2022-08-19T01:22:59;50.53;;;23.63;;
74241;SDS011;62599;49.146;10.426;2022-08-19T01:25:26;49.53;;;22.85;;
74241;SDS011;62599;49.146;10.426;2022-08-19T01:27:53;48.80;;;22.10;;
74241;SDS011;62599;49.146;10.426;2022-08-19T01:30:23;45.60;;;21.23;;
74241;SDS011;62599;49.146;10.426;2022-08-19T01:32:49;44.28;;;22.10;;
74241;SDS011;62599;49.146;10.426;2022-08-19T01:35:15;40.10;;;20.45;;
74241;SDS011;62599;49.146;10.426;2022-08-19T01:38:02;41.75;;;22.05;;
74241;SDS011;62599;49.146;10.426;2022-08-19T01:40:31;44.08;;;21.15;;
74241;SDS011;62599;49.146;10.426;2022-08-19T01:42:58;43.03;;;21.05;;
74241;SDS011;62599;49.146;10.426;2022-08-19T01:45:25;44.53;;;22.17;;
74241;SDS011;62599;49.146;10.426;2022-08-19T01:47:51;43.35;;;20.48;;
74241;SDS011;62599;49.146;10.426;2022-08-19T01:50:16;43.83;;;21.03;;
74241;SDS011;62599;49.146;10.426;2022-08-19T01:52:42;47.45;;;20.27;;
74241;SDS011;62599;49.146;10.426;2022-08-19T01:55:09;50.10;;;22.98;;
74241;SDS011;62599;49.146;10.426;2022-08-19T01:57:35;55.45;;;25.35;;
74241;SDS011;62599;49.146;10.426;2022-08-19T02:00:01;54.97;;;26.77;;
74241;SDS011;62599;49.146;10.426;2022-08-19T02:02:29;53.53;;;27.50;;
74241;SDS011;62599;49.146;10.426;2022-08-19T02:04:54;51.17;;;23.87;;
74241;SDS011;62599;49.146;10.426;2022-08-19T02:07:19;49.37;;;28.50;;
74241;SDS011;62599;49.146;10.426;2022-08-19T02:09:46;48.42;;;23.38;;
74241;SDS011;62599;49.146;10.426;2022-08-19T02:12:12;62.13;;;27.08;;
74241;SDS011;62599;49.146;10.426;2022-08-19T02:14:37;54.10;;;24.67;;
74241;SDS011;62599;49.146;10.426;2022-08-19T02:17:03;55.87;;;25.80;;
74241;SDS011;62599;49.146;10.426;2022-08-19T02:19:28;48.03;;;22.75;;
74241;SDS011;62599;49.146;10.426;2022-08-19T02:21:53;58.87;;;23.97;;
74241;SDS011;62599;49.146;10.426;2022-08-19T02:24:19;53.93;;;23.73;;
74241;SDS011;62599;49.146;10.426;2022-08-19T02:26:44;44.35;;;22.90;;
74241;SDS011;62599;49.146;10.426;2022-08-19T02:29:09;52.57;;;22.93;;
74241;SDS011;62599;49.146;10.426;2022-08-19T02:31:35;56.53;;;24.60;;
74241;SDS011;62599;49.146;10.426;2022-08-19T02:34:00;55.65;;;24.65;;
74241;SDS011;62599;49.146;10.426;2022-08-19T02:36:26;50.92;;;25.38;;
74241;SDS011;62599;49.146;10.426;2022-08-19T02:38:52;48.00;;;22.27;;
74241;SDS011;62599;49.146;10.426;2022-08-19T02:41:19;47.67;;;22.92;;
74241;SDS011;62599;49.146;10.426;2022-08-19T02:43:45;56.70;;;24.00;;
74241;SDS011;62599;49.146;10.426;2022-08-19T02:46:15;57.60;;;24.10;;
74241;SDS011;62599;49.146;10.426;2022-08-19T02:48:42;51.15;;;23.85;;
74241;SDS011;62599;49.146;10.426;2022-08-19T02:51:07;52.85;;;22.92;;
74241;SDS011;62599;49.146;10.426;2022-08-19T02:53:33;50.47;;;21.87;;
74241;SDS011;62599;49.146;10.426;2022-08-19T02:55:58;52.97;;;23.73;;
74241;SDS011;62599;49.146;10.426;2022-08-19T02:58:23;50.80;;;22.88;;
74241;SDS011;62599;49.146;10.426;2022-08-19T03:00:50;48.93;;;21.07;;
74241;SDS011;62599;49.146;10.426;2022-08-19T03:03:16;56.08;;;24.65;;
74241;SDS011;62599;49.146;10.426;2022-08-19T03:05:41;45.17;;;21.42;;
74241;SDS011;62599;49.146;10.426;2022-08-19T03:08:07;40.90;;;20.27;;
74241;SDS011;62599;49.146;10.426;2022-08-19T03:10:33;57.65;;;23.77;;
74241;SDS011;62599;49.146;10.426;2022-08-19T03:13:04;45.63;;;23.70;;
74241;SDS011;62599;49.146;10.426;2022-08-19T03:15:29;63.23;;;24.50;;
74241;SDS011;62599;49.146;10.426;2022-08-19T03:17:55;50.35;;;24.05;;
74241;SDS011;62599;49.146;10.426;2022-08-19T03:20:20;58.30;;;26.07;;
74241;SDS011;62599;49.146;10.426;2022-08-19T03:22:45;56.03;;;27.20;;
74241;SDS011;62599;49.146;10.426;2022-08-19T03:25:11;52.40;;;24.40;;
74241;SDS011;62599;49.146;10.426;2022-08-19T03:27:36;55.67;;;25.23;;
74241;SDS011;62599;49.146;10.426;2022-08-19T03:30:02;52.30;;;25.73;;
74241;SDS011;62599;49.146;10.426;2022-08-19T03:32:27;63.08;;;25.55;;
74241;SDS011;62599;49.146;10.426;2022-08-19T03:34:53;54.70;;;24.57;;
74241;SDS011;62599;49.146;10.426;2022-08-19T03:37:18;54.47;;;24.70;;
74241;SDS011;62599;49.146;10.426;2022-08-19T03:39:43;51.13;;;23.77;;
74241;SDS011;62599;49.146;10.426;2022-08-19T03:42:09;55.57;;;23.10;;
74241;SDS011;62599;49.146;10.426;2022-08-19T03:44:34;55.03;;;24.38;;
74241;SDS011;62599;49.146;10.426;2022-08-19T03:47:02;52.30;;;23.50;;
74241;SDS011;62599;49.146;10.426;2022-08-19T03:49:29;49.92;;;23.90;;
74241;SDS011;62599;49.146;10.426;2022-08-19T03:51:55;50.60;;;23.40;;
74241;SDS011;62599;49.146;10.426;2022-08-19T03:54:22;56.45;;;24.85;;
74241;SDS011;62599;49.146;10.426;2022-08-19T03:56:48;53.25;;;25.58;;
74241;SDS011;62599;49.146;10.426;2022-08-19T03:59:15;54.70;;;22.88;;
74241;SDS011;62599;49.146;10.426;2022-08-19T04:01:41;49.10;;;23.08;;
74241;SDS011;62599;49.146;10.426;2022-08-19T04:04:06;53.60;;;24.67;;
74241;SDS011;62599;49.146;10.426;2022-08-19T04:06:32;55.83;;;24.60;;
74241;SDS011;62599;49.146;10.426;2022-08-19T04:08:59;51.28;;;22.77;;
74241;SDS011;62599;49.146;10.426;2022-08-19T04:11:27;53.25;;;23.52;;
74241;SDS011;62599;49.146;10.426;2022-08-19T04:13:52;52.45;;;23.98;;
74241;SDS011;62599;49.146;10.426;2022-08-19T04:16:18;53.92;;;23.55;;
74241;SDS011;62599;49.146;10.426;2022-08-19T04:18:45;50.75;;;23.40;;
74241;SDS011;62599;49.146;10.426;2022-08-19T04:21:15;52.90;;;23.83;;
74241;SDS011;62599;49.146;10.426;2022-08-19T04:23:40;42.40;;;21.30;;
74241;SDS011;62599;49.146;10.426;2022-08-19T04:26:05;43.93;;;20.40;;
74241;SDS011;62599;49.146;10.426;2022-08-19T04:28:31;47.73;;;23.63;;
74241;SDS011;62599;49.146;10.426;2022-08-19T04:30:56;48.17;;;22.67;;
74241;SDS011;62599;49.146;10.426;2022-08-19T04:33:22;52.80;;;23.37;;
74241;SDS011;62599;49.146;10.426;2022-08-19T04:35:49;47.17;;;21.80;;
74241;SDS011;62599;49.146;10.426;2022-08-19T04:38:15;50.33;;;23.85;;
74241;SDS011;62599;49.146;10.426;2022-08-19T04:40:41;55.13;;;25.48;;
74241;SDS011;62599;49.146;10.426;2022-08-19T04:43:26;46.33;;;22.63;;
74241;SDS011;62599;49.146;10.426;2022-08-19T04:45:51;51.38;;;23.00;;
74241;SDS011;62599;49.146;10.426;2022-08-19T04:48:16;43.43;;;22.03;;
74241;SDS011;62599;49.146;10.426;2022-08-19T04:50:42;48.90;;;22.08;;
74241;SDS011;62599;49.146;10.426;2022-08-19T04:53:08;51.45;;;22.90;;
74241;SDS011;62599;49.146;10.426;2022-08-19T04:55:33;47.42;;;23.15;;
74241;SDS011;62599;49.146;10.426;2022-08-19T04:58:00;42.50;;;22.02;;
74241;SDS011;62599;49.146;10.426;2022-08-19T05:00:27;48.53;;;23.50;;
74241;SDS011;62599;49.146;10.426;2022-08-19T05:02:52;48.78;;;22.17;;
74241;SDS011;62599;49.146;10.426;2022-08-19T05:05:18;47.83;;;23.30;;
74241;SDS011;62599;49.146;10.426;2022-08-19T05:07:43;53.27;;;24.93;;
74241;SDS011;62599;49.146;10.426;2022-08-19T05:10:08;48.03;;;22.60;;
74241;SDS011;62599;49.146;10.426;2022-08-19T05:12:33;46.38;;;22.73;;
74241;SDS011;62599;49.146;10.426;2022-08-19T05:14:59;49.63;;;23.13;;
74241;SDS011;62599;49.146;10.426;2022-08-19T05:17:25;49.33;;;24.35;;
74241;SDS011;62599;49.146;10.426;2022-08-19T05:19:51;47.15;;;23.10;;
74241;SDS011;62599;49.146;10.426;2022-08-19T05:22:34;47.80;;;23.13;;
74241;SDS011;62599;49.146;10.426;2022-08-19T05:25:04;51.63;;;25.15;;
74241;SDS011;62599;49.146;10.426;2022-08-19T05:27:30;52.97;;;26.77;;
74241;SDS011;62599;49.146;10.426;2022-08-19T05:29:55;47.50;;;25.27;;
74241;SDS011;62599;49.146;10.426;2022-08-19T05:32:21;56.50;;;26.83;;
74241;SDS011;62599;49.146;10.426;2022-08-19T05:34:48;57.65;;;28.17;;
74241;SDS011;62599;49.146;10.426;2022-08-19T05:37:13;56.13;;;27.33;;
74241;SDS011;62599;49.146;10.426;2022-08-19T05:39:39;45.33;;;24.13;;
74241;SDS011;62599;49.146;10.426;2022-08-19T05:42:06;57.25;;;25.67;;
74241;SDS011;62599;49.146;10.426;2022-08-19T05:44:33;55.38;;;27.23;;
74241;SDS011;62599;49.146;10.426;2022-08-19T05:46:59;52.60;;;25.67;;
74241;SDS011;62599;49.146;10.426;2022-08-19T05:49:25;45.10;;;23.65;;
74241;SDS011;62599;49.146;10.426;2022-08-19T05:51:50;47.88;;;22.58;;
74241;SDS011;62599;49.146;10.426;2022-08-19T05:54:16;48.67;;;22.75;;
74241;SDS011;62599;49.146;10.426;2022-08-19T05:56:42;43.17;;;22.73;;
74241;SDS011;62599;49.146;10.426;2022-08-19T05:59:08;52.10;;;23.45;;
74241;SDS011;62599;49.146;10.426;2022-08-19T06:01:36;48.67;;;22.60;;
74241;SDS011;62599;49.146;10.426;2022-08-19T06:04:02;46.60;;;22.70;;
74241;SDS011;62599;49.146;10.426;2022-08-19T06:06:28;49.47;;;24.67;;
74241;SDS011;62599;49.146;10.426;2022-08-19T06:08:53;40.73;;;21.00;;
74241;SDS011;62599;49.146;10.426;2022-08-19T06:11:31;47.70;;;24.00;;
74241;SDS011;62599;49.146;10.426;2022-08-19T06:13:57;47.85;;;23.45;;
74241;SDS011;62599;49.146;10.426;2022-08-19T06:16:24;44.33;;;22.48;;
74241;SDS011;62599;49.146;10.426;2022-08-19T06:18:50;43.77;;;22.50;;
74241;SDS011;62599;49.146;10.426;2022-08-19T06:21:22;50.22;;;24.90;;
74241;SDS011;62599;49.146;10.426;2022-08-19T06:23:48;48.45;;;24.20;;
74241;SDS011;62599;49.146;10.426;2022-08-19T06:26:16;45.78;;;23.08;;
74241;SDS011;62599;49.146;10.426;2022-08-19T06:28:42;49.95;;;24.52;;
74241;SDS011;62599;49.146;10.426;2022-08-19T06:31:11;50.25;;;25.25;;
74241;SDS011;62599;49.146;10.426;2022-08-19T06:33:39;47.42;;;25.73;;
74241;SDS011;62599;49.146;10.426;2022-08-19T06:36:04;44.67;;;23.43;;
74241;SDS011;62599;49.146;10.426;2022-08-19T06:38:30;45.10;;;24.13;;
74241;SDS011;62599;49.146;10.426;2022-08-19T06:41:05;43.33;;;22.60;;
74241;SDS011;62599;49.146;10.426;2022-08-19T06:43:30;41.88;;;21.10;;
74241;SDS011;62599;49.146;10.426;2022-08-19T06:45:56;41.77;;;21.50;;
74241;SDS011;62599;49.146;10.426;2022-08-19T06:48:22;41.22;;;20.83;;
74241;SDS011;62599;49.146;10.426;2022-08-19T06:50:47;40.78;;;21.42;;
74241;SDS011;62599;49.146;10.426;2022-08-19T06:53:13;35.00;;;18.52;;
74241;SDS011;62599;49.146;10.426;2022-08-19T06:55:38;37.03;;;18.73;;
74241;SDS011;62599;49.146;10.426;2022-08-19T06:58:05;38.08;;;19.42;;
74241;SDS011;62599;49.146;10.426;2022-08-19T07:00:31;39.33;;;21.23;;
74241;SDS011;62599;49.146;10.426;2022-08-19T07:02:56;36.92;;;20.45;;
74241;SDS011;62599;49.146;10.426;2022-08-19T07:05:21;39.92;;;20.45;;
74241;SDS011;62599;49.146;10.426;2022-08-19T07:07:47;35.42;;;21.10;;
74241;SDS011;62599;49.146;10.426;2022-08-19T07:10:12;37.80;;;19.23;;
74241;SDS011;62599;49.146;10.426;2022-08-19T07:12:37;34.20;;;20.10;;
74241;SDS011;62599;49.146;10.426;2022-08-19T07:15:04;37.97;;;22.08;;
74241;SDS011;62599;49.146;10.426;2022-08-19T07:17:29;40.00;;;22.05;;
74241;SDS011;62599;49.146;10.426;2022-08-19T07:19:54;41.60;;;21.43;;
74241;SDS011;62599;49.146;10.426;2022-08-19T07:22:20;39.27;;;22.40;;
74241;SDS011;62599;49.146;10.426;2022-08-19T07:24:47;36.92;;;20.10;;
74241;SDS011;62599;49.146;10.426;2022-08-19T07:27:13;41.17;;;20.80;;
74241;SDS011;62599;49.146;10.426;2022-08-19T07:29:38;45.70;;;21.70;;
74241;SDS011;62599;49.146;10.426;2022-08-19T07:32:04;33.63;;;19.47;;
74241;SDS011;62599;49.146;10.426;2022-08-19T07:34:30;34.10;;;19.77;;
74241;SDS011;62599;49.146;10.426;2022-08-19T07:36:55;36.97;;;20.73;;
74241;SDS011;62599;49.146;10.426;2022-08-19T07:39:25;33.75;;;20.27;;
74241;SDS011;62599;49.146;10.426;2022-08-19T07:41:51;37.63;;;21.73;;
74241;SDS011;62599;49.146;10.426;2022-08-19T07:44:17;36.17;;;19.77;;
74241;SDS011;62599;49.146;10.426;2022-08-19T07:46:44;40.13;;;22.05;;
74241;SDS011;62599;49.146;10.426;2022-08-19T07:49:10;35.20;;;19.67;;
74241;SDS011;62599;49.146;10.426;2022-08-19T07:51:48;31.20;;;18.40;;
74241;SDS011;62599;49.146;10.426;2022-08-19T07:56:39;31.27;;;18.10;;
74241;SDS011;62599;49.146;10.426;2022-08-19T07:59:05;35.40;;;20.40;;
74241;SDS011;62599;49.146;10.426;2022-08-19T08:01:30;33.83;;;20.60;;
74241;SDS011;62599;49.146;10.426;2022-08-19T08:03:56;33.50;;;18.87;;
74241;SDS011;62599;49.146;10.426;2022-08-19T08:06:40;36.30;;;21.33;;
74241;SDS011;62599;49.146;10.426;2022-08-19T08:09:25;37.45;;;20.60;;
74241;SDS011;62599;49.146;10.426;2022-08-19T08:11:53;35.72;;;19.05;;
74241;SDS011;62599;49.146;10.426;2022-08-19T08:14:21;36.33;;;20.55;;
74241;SDS011;62599;49.146;10.426;2022-08-19T08:16:47;36.25;;;20.90;;
74241;SDS011;62599;49.146;10.426;2022-08-19T08:19:14;36.45;;;18.65;;
74241;SDS011;62599;49.146;10.426;2022-08-19T08:21:42;35.30;;;19.02;;
74241;SDS011;62599;49.146;10.426;2022-08-19T08:24:07;32.80;;;18.60;;
74241;SDS011;62599;49.146;10.426;2022-08-19T08:26:32;32.88;;;20.55;;
74241;SDS011;62599;49.146;10.426;2022-08-19T08:28:58;36.75;;;18.70;;
74241;SDS011;62599;49.146;10.426;2022-08-19T08:31:23;39.63;;;19.47;;
74241;SDS011;62599;49.146;10.426;2022-08-19T08:33:48;35.83;;;20.23;;
74241;SDS011;62599;49.146;10.426;2022-08-19T08:36:14;32.37;;;18.90;;
74241;SDS011;62599;49.146;10.426;2022-08-19T08:38:40;31.45;;;18.50;;
74241;SDS011;62599;49.146;10.426;2022-08-19T08:41:13;29.85;;;16.95;;
74241;SDS011;62599;49.146;10.426;2022-08-19T08:43:44;31.20;;;18.75;;
74241;SDS011;62599;49.146;10.426;2022-08-19T08:46:12;26.15;;;15.63;;
74241;SDS011;62599;49.146;10.426;2022-08-19T08:48:50;26.23;;;15.00;;
74241;SDS011;62599;49.146;10.426;2022-08-19T08:51:20;23.73;;;15.23;;
74241;SDS011;62599;49.146;10.426;2022-08-19T08:53:47;21.13;;;15.27;;
74241;SDS011;62599;49.146;10.426;2022-08-19T08:56:13;26.52;;;14.52;;
74241;SDS011;62599;49.146;10.426;2022-08-19T09:01:07;23.55;;;14.73;;
74241;SDS011;62599;49.146;10.426;2022-08-19T09:03:33;23.88;;;14.23;;
74241;SDS011;62599;49.146;10.426;2022-08-19T09:06:00;23.17;;;13.07;;
74241;SDS011;62599;49.146;10.426;2022-08-19T09:11:00;22.33;;;13.73;;
74241;SDS011;62599;49.146;10.426;2022-08-19T09:16:02;22.15;;;15.43;;
74241;SDS011;62599;49.146;10.426;2022-08-19T09:21:26;23.10;;;13.90;;
74241;SDS011;62599;49.146;10.426;2022-08-19T09:23:52;23.10;;;13.68;;
74241;SDS011;62599;49.146;10.426;2022-08-19T09:26:18;24.27;;;14.07;;
74241;SDS011;62599;49.146;10.426;2022-08-19T09:28:46;22.63;;;13.57;;
74241;SDS011;62599;49.146;10.426;2022-08-19T09:31:16;22.02;;;14.73;;
74241;SDS011;62599;49.146;10.426;2022-08-19T09:33:42;27.40;;;12.95;;
74241;SDS011;62599;49.146;10.426;2022-08-19T09:36:11;23.63;;;14.48;;
74241;SDS011;62599;49.146;10.426;2022-08-19T09:38:37;24.02;;;13.80;;
74241;SDS011;62599;49.146;10.426;2022-08-19T09:41:06;20.75;;;13.77;;
74241;SDS011;62599;49.146;10.426;2022-08-19T09:43:32;26.02;;;15.07;;
74241;SDS011;62599;49.146;10.426;2022-08-19T09:45:57;25.67;;;14.73;;
74241;SDS011;62599;49.146;10.426;2022-08-19T09:48:23;30.30;;;15.73;;
74241;SDS011;62599;49.146;10.426;2022-08-19T09:50:48;27.03;;;14.97;;
74241;SDS011;62599;49.146;10.426;2022-08-19T09:53:15;29.50;;;15.48;;
74241;SDS011;62599;49.146;10.426;2022-08-19T09:55:43;25.93;;;15.07;;
74241;SDS011;62599;49.146;10.426;2022-08-19T09:58:08;26.17;;;13.88;;
74241;SDS011;62599;49.146;10.426;2022-08-19T10:00:34;26.42;;;14.70;;
74241;SDS011;62599;49.146;10.426;2022-08-19T10:02:59;23.50;;;14.15;;
74241;SDS011;62599;49.146;10.426;2022-08-19T10:05:25;23.33;;;14.65;;
74241;SDS011;62599;49.146;10.426;2022-08-19T10:08:21;24.40;;;15.95;;
74241;SDS011;62599;49.146;10.426;2022-08-19T10:10:56;23.25;;;15.13;;
74241;SDS011;62599;49.146;10.426;2022-08-19T10:13:23;25.10;;;15.23;;
74241;SDS011;62599;49.146;10.426;2022-08-19T10:15:50;22.35;;;13.27;;
74241;SDS011;62599;49.146;10.426;2022-08-19T10:18:16;27.52;;;14.93;;
74241;SDS011;62599;49.146;10.426;2022-08-19T10:20:44;24.30;;;13.93;;
74241;SDS011;62599;49.146;10.426;2022-08-19T10:23:11;22.95;;;15.48;;
74241;SDS011;62599;49.146;10.426;2022-08-19T10:25:36;21.45;;;14.50;;
74241;SDS011;62599;49.146;10.426;2022-08-19T10:28:02;19.15;;;12.27;;
74241;SDS011;62599;49.146;10.426;2022-08-19T10:30:27;20.63;;;13.45;;
74241;SDS011;62599;49.146;10.426;2022-08-19T10:32:53;24.40;;;14.43;;
74241;SDS011;62599;49.146;10.426;2022-08-19T10:35:18;23.40;;;13.60;;
74241;SDS011;62599;49.146;10.426;2022-08-19T10:37:43;22.92;;;14.95;;
74241;SDS011;62599;49.146;10.426;2022-08-19T10:40:09;21.07;;;13.60;;
74241;SDS011;62599;49.146;10.426;2022-08-19T10:42:36;23.52;;;15.35;;
74241;SDS011;62599;49.146;10.426;2022-08-19T10:45:03;21.17;;;13.70;;
74241;SDS011;62599;49.146;10.426;2022-08-19T10:47:28;28.83;;;14.80;;
74241;SDS011;62599;49.146;10.426;2022-08-19T10:49:55;25.67;;;14.97;;
74241;SDS011;62599;49.146;10.426;2022-08-19T10:52:42;24.17;;;13.73;;
74241;SDS011;62599;49.146;10.426;2022-08-19T10:55:08;24.27;;;14.90;;
74241;SDS011;62599;49.146;10.426;2022-08-19T10:57:56;25.02;;;15.43;;
74241;SDS011;62599;49.146;10.426;2022-08-19T11:00:23;22.38;;;14.80;;
74241;SDS011;62599;49.146;10.426;2022-08-19T11:02:48;24.50;;;15.98;;
74241;SDS011;62599;49.146;10.426;2022-08-19T11:05:14;26.75;;;16.23;;
74241;SDS011;62599;49.146;10.426;2022-08-19T11:07:42;23.15;;;14.68;;
74241;SDS011;62599;49.146;10.426;2022-08-19T11:10:12;24.48;;;15.77;;
74241;SDS011;62599;49.146;10.426;2022-08-19T11:12:38;23.73;;;15.65;;
74241;SDS011;62599;49.146;10.426;2022-08-19T11:15:05;23.75;;;14.98;;
74241;SDS011;62599;49.146;10.426;2022-08-19T11:17:32;28.10;;;15.23;;
74241;SDS011;62599;49.146;10.426;2022-08-19T11:19:58;29.98;;;16.88;;
74241;SDS011;62599;49.146;10.426;2022-08-19T11:22:29;23.92;;;15.45;;
74241;SDS011;62599;49.146;10.426;2022-08-19T11:24:54;23.88;;;15.43;;
74241;SDS011;62599;49.146;10.426;2022-08-19T11:27:20;23.27;;;15.95;;
74241;SDS011;62599;49.146;10.426;2022-08-19T11:29:46;27.42;;;15.52;;
74241;SDS011;62599;49.146;10.426;2022-08-19T11:32:13;23.20;;;15.32;;
74241;SDS011;62599;49.146;10.426;2022-08-19T11:34:39;25.45;;;14.80;;
74241;SDS011;62599;49.146;10.426;2022-08-19T11:37:04;27.27;;;15.87;;
74241;SDS011;62599;49.146;10.426;2022-08-19T11:39:31;24.77;;;17.25;;
74241;SDS011;62599;49.146;10.426;2022-08-19T11:41:59;25.80;;;15.95;;
74241;SDS011;62599;49.146;10.426;2022-08-19T11:44:26;24.42;;;14.50;;
74241;SDS011;62599;49.146;10.426;2022-08-19T11:46:55;24.35;;;15.73;;
74241;SDS011;62599;49.146;10.426;2022-08-19T11:49:21;26.10;;;16.08;;
74241;SDS011;62599;49.146;10.426;2022-08-19T11:51:47;24.17;;;16.07;;
74241;SDS011;62599;49.146;10.426;2022-08-19T11:54:13;26.20;;;16.70;;
74241;SDS011;62599;49.146;10.426;2022-08-19T11:56:39;24.90;;;16.52;;
74241;SDS011;62599;49.146;10.426;2022-08-19T11:59:05;25.73;;;15.40;;
74241;SDS011;62599;49.146;10.426;2022-08-19T12:01:30;25.23;;;15.33;;
74241;SDS011;62599;49.146;10.426;2022-08-19T12:03:56;24.30;;;17.30;;
74241;SDS011;62599;49.146;10.426;2022-08-19T12:06:23;24.23;;;15.38;;
74241;SDS011;62599;49.146;10.426;2022-08-19T12:08:51;21.17;;;14.95;;
74241;SDS011;62599;49.146;10.426;2022-08-19T12:11:16;23.05;;;15.25;;
74241;SDS011;62599;49.146;10.426;2022-08-19T12:13:41;23.37;;;14.77;;
74241;SDS011;62599;49.146;10.426;2022-08-19T12:16:14;24.90;;;16.30;;
74241;SDS011;62599;49.146;10.426;2022-08-19T12:18:40;25.48;;;16.40;;
74241;SDS011;62599;49.146;10.426;2022-08-19T12:21:10;22.95;;;14.93;;
74241;SDS011;62599;49.146;10.426;2022-08-19T12:23:37;26.85;;;15.85;;
74241;SDS011;62599;49.146;10.426;2022-08-19T12:26:03;26.35;;;17.45;;
74241;SDS011;62599;49.146;10.426;2022-08-19T12:28:28;27.88;;;17.40;;
74241;SDS011;62599;49.146;10.426;2022-08-19T12:30:53;31.07;;;19.83;;
74241;SDS011;62599;49.146;10.426;2022-08-19T12:33:20;29.42;;;18.02;;
74241;SDS011;62599;49.146;10.426;2022-08-19T12:35:49;30.63;;;17.88;;
74241;SDS011;62599;49.146;10.426;2022-08-19T12:38:15;32.28;;;18.98;;
74241;SDS011;62599;49.146;10.426;2022-08-19T12:40:40;30.10;;;19.60;;
74241;SDS011;62599;49.146;10.426;2022-08-19T12:43:06;28.98;;;18.67;;
74241;SDS011;62599;49.146;10.426;2022-08-19T12:45:32;33.13;;;20.95;;
74241;SDS011;62599;49.146;10.426;2022-08-19T12:47:58;35.38;;;20.60;;
74241;SDS011;62599;49.146;10.426;2022-08-19T12:50:23;34.80;;;21.63;;
74241;SDS011;62599;49.146;10.426;2022-08-19T12:52:49;33.22;;;20.50;;
74241;SDS011;62599;49.146;10.426;2022-08-19T12:55:14;37.13;;;21.55;;
74241;SDS011;62599;49.146;10.426;2022-08-19T12:57:39;37.00;;;20.73;;
74241;SDS011;62599;49.146;10.426;2022-08-19T13:02:34;50.65;;;26.10;;
74241;SDS011;62599;49.146;10.426;2022-08-19T13:05:00;44.35;;;24.38;;
74241;SDS011;62599;49.146;10.426;2022-08-19T13:07:25;41.75;;;23.30;;
74241;SDS011;62599;49.146;10.426;2022-08-19T13:09:51;45.13;;;25.88;;
74241;SDS011;62599;49.146;10.426;2022-08-19T13:12:17;54.38;;;26.38;;
74241;SDS011;62599;49.146;10.426;2022-08-19T13:14:45;50.10;;;25.45;;
74241;SDS011;62599;49.146;10.426;2022-08-19T13:17:18;45.10;;;24.58;;
74241;SDS011;62599;49.146;10.426;2022-08-19T13:19:49;41.25;;;22.02;;
74241;SDS011;62599;49.146;10.426;2022-08-19T13:22:19;39.72;;;23.52;;
74241;SDS011;62599;49.146;10.426;2022-08-19T13:24:49;36.65;;;21.73;;
74241;SDS011;62599;49.146;10.426;2022-08-19T13:27:15;39.53;;;21.90;;
74241;SDS011;62599;49.146;10.426;2022-08-19T13:29:41;35.20;;;20.77;;
74241;SDS011;62599;49.146;10.426;2022-08-19T13:32:28;35.58;;;19.90;;
74241;SDS011;62599;49.146;10.426;2022-08-19T13:35:13;35.75;;;21.45;;
74241;SDS011;62599;49.146;10.426;2022-08-19T13:40:44;42.03;;;22.20;;
74241;SDS011;62599;49.146;10.426;2022-08-19T13:43:11;37.63;;;21.15;;
74241;SDS011;62599;49.146;10.426;2022-08-19T13:45:37;37.70;;;20.02;;
74241;SDS011;62599;49.146;10.426;2022-08-19T13:48:04;38.30;;;22.13;;
74241;SDS011;62599;49.146;10.426;2022-08-19T13:50:34;35.83;;;20.48;;
74241;SDS011;62599;49.146;10.426;2022-08-19T13:53:00;31.33;;;19.27;;
74241;SDS011;62599;49.146;10.426;2022-08-19T13:55:26;37.38;;;20.08;;
74241;SDS011;62599;49.146;10.426;2022-08-19T13:57:56;38.10;;;19.05;;
74241;SDS011;62599;49.146;10.426;2022-08-19T14:00:23;35.25;;;20.38;;
74241;SDS011;62599;49.146;10.426;2022-08-19T14:02:52;38.00;;;20.25;;
74241;SDS011;62599;49.146;10.426;2022-08-19T14:05:18;38.05;;;20.45;;
74241;SDS011;62599;49.146;10.426;2022-08-19T14:07:44;32.80;;;19.08;;
74241;SDS011;62599;49.146;10.426;2022-08-19T14:10:11;40.88;;;21.52;;
74241;SDS011;62599;49.146;10.426;2022-08-19T14:12:37;36.28;;;20.30;;
74241;SDS011;62599;49.146;10.426;2022-08-19T14:15:09;37.08;;;21.75;;
74241;SDS011;62599;49.146;10.426;2022-08-19T14:17:40;36.83;;;20.63;;
74241;SDS011;62599;49.146;10.426;2022-08-19T14:20:06;33.97;;;20.00;;
74241;SDS011;62599;49.146;10.426;2022-08-19T14:22:33;36.78;;;21.35;;
74241;SDS011;62599;49.146;10.426;2022-08-19T14:24:58;39.70;;;21.98;;
74241;SDS011;62599;49.146;10.426;2022-08-19T14:27:23;39.13;;;21.00;;
74241;SDS011;62599;49.146;10.426;2022-08-19T14:29:50;37.45;;;21.10;;